createdAt,value
2023-03-27T00:00:16.732Z,100338.00
2023-03-27T00:04:22.849Z,100329.72
2023-03-27T00:08:26.508Z,100336.66
2023-03-27T00:12:29.803Z,100337.00
2023-03-27T00:16:33.203Z,100355.91
2023-03-27T00:20:39.244Z,100360.13
2023-03-27T00:24:42.340Z,100372.13
2023-03-27T00:28:45.863Z,100388.66
2023-03-27T00:32:50.204Z,100391.00
2023-03-27T00:36:55.285Z,100402.47
2023-03-27T00:40:59.582Z,100411.94
2023-03-27T00:45:03.428Z,100398.25
2023-03-27T00:49:11.154Z,100395.06
2023-03-27T00:53:19.074Z,100402.97
2023-03-27T00:57:22.600Z,100422.72
2023-03-27T01:01:28.569Z,100430.50
2023-03-27T01:05:32.150Z,100429.47
2023-03-27T01:09:37.147Z,100441.59
2023-03-27T01:14:02.576Z,100454.78
2023-03-27T01:18:27.834Z,100446.50
2023-03-27T01:23:16.790Z,100452.75
2023-03-27T01:28:08.572Z,100459.47
2023-03-27T01:32:41.228Z,100461.84
2023-03-27T01:37:13.511Z,100469.59
2023-03-27T01:41:27.466Z,100478.31
2023-03-27T01:45:37.496Z,100478.31
2023-03-27T01:49:47.341Z,100481.34
2023-03-27T01:53:53.933Z,100478.09
2023-03-27T01:58:03.607Z,100491.75
2023-03-27T02:02:14.296Z,100496.13
2023-03-27T02:06:22.141Z,100503.72
2023-03-27T02:10:30.493Z,100505.88
2023-03-27T02:14:40.506Z,100512.97
2023-03-27T02:18:51.616Z,100529.41
2023-03-27T02:22:55.618Z,100539.06
2023-03-27T02:27:04.495Z,100541.13
2023-03-27T02:31:34.188Z,100541.88
2023-03-27T02:35:46.279Z,100548.53
2023-03-27T02:39:58.191Z,100551.06
2023-03-27T02:44:10.223Z,100552.63
2023-03-27T02:48:39.677Z,100559.16
2023-03-27T02:52:48.139Z,100570.06
2023-03-27T02:56:56.278Z,100576.66
2023-03-27T03:01:10.041Z,100579.50
2023-03-27T03:05:29.970Z,100592.72
2023-03-27T03:09:34.813Z,100593.34
2023-03-27T03:13:44.862Z,100602.44
2023-03-27T03:17:48.416Z,100604.84
2023-03-27T03:21:53.282Z,100613.56
2023-03-27T03:25:57.042Z,100624.41
2023-03-27T03:30:09.774Z,100634.81
2023-03-27T03:34:23.587Z,100637.47
2023-03-27T03:38:30.027Z,100657.34
2023-03-27T03:42:47.472Z,100651.66
2023-03-27T03:46:52.062Z,100658.66
2023-03-27T03:50:57.979Z,100668.06
2023-03-27T03:55:04.197Z,100660.19
2023-03-27T03:59:07.492Z,100675.44
2023-03-27T04:03:11.550Z,100683.22
2023-03-27T04:07:17.817Z,100683.59
2023-03-27T04:11:24.428Z,100687.31
2023-03-27T04:15:41.756Z,100683.81
2023-03-27T04:19:54.443Z,100698.00
2023-03-27T04:24:02.748Z,100712.91
2023-03-27T04:28:22.835Z,100714.91
2023-03-27T04:32:37.585Z,100721.13
2023-03-27T04:37:07.036Z,100730.88
2023-03-27T04:41:11.685Z,100726.72
2023-03-27T04:45:20.329Z,100733.03
2023-03-27T04:49:26.402Z,100732.16
2023-03-27T04:53:38.881Z,100741.59
2023-03-27T04:57:47.216Z,100740.09
2023-03-27T05:01:52.011Z,100737.34
2023-03-27T05:06:12.068Z,100741.56
2023-03-27T05:10:17.498Z,100764.56
2023-03-27T05:14:26.535Z,100765.84
2023-03-27T05:18:32.283Z,100764.56
2023-03-27T05:22:35.852Z,100770.09
2023-03-27T05:26:52.339Z,100778.25
2023-03-27T05:30:57.283Z,100783.66
2023-03-27T05:35:02.306Z,100789.88
2023-03-27T05:39:13.225Z,100808.25
2023-03-27T05:43:18.298Z,100806.50
2023-03-27T05:47:21.615Z,100809.19
2023-03-27T05:51:31.660Z,100824.72
2023-03-27T05:55:36.024Z,100835.53
2023-03-27T05:59:40.778Z,100840.25
2023-03-27T06:03:56.859Z,100852.84
2023-03-27T06:08:21.551Z,100863.56
2023-03-27T06:12:26.177Z,100866.31
2023-03-27T06:16:38.180Z,100880.59
2023-03-27T06:21:16.397Z,100877.66
2023-03-27T06:25:21.762Z,100883.22
2023-03-27T06:29:29.654Z,100891.81
2023-03-27T06:33:32.881Z,100896.81
2023-03-27T06:37:41.094Z,100896.06
2023-03-27T06:41:46.048Z,100895.38
2023-03-27T06:46:00.362Z,100896.13
2023-03-27T06:50:23.467Z,100908.72
2023-03-27T06:54:28.404Z,100914.09
2023-03-27T06:58:33.232Z,100918.94
2023-03-27T07:02:37.034Z,100918.00
2023-03-27T07:06:58.795Z,100924.56
2023-03-27T07:15:13.980Z,100920.59
2023-03-27T07:19:17.829Z,100915.47
2023-03-27T07:23:26.822Z,100922.25
2023-03-27T07:27:35.970Z,100922.97
2023-03-27T07:31:55.935Z,100933.94
2023-03-27T07:36:20.924Z,100936.34
2023-03-27T07:40:40.175Z,100925.53
2023-03-27T07:45:11.592Z,100920.81
2023-03-27T07:49:16.256Z,100920.81
2023-03-27T07:53:33.483Z,100914.69
2023-03-27T07:57:59.688Z,100923.88
2023-03-27T08:02:06.315Z,100932.31
2023-03-27T08:06:15.697Z,100934.91
2023-03-27T08:10:19.173Z,100938.44
2023-03-27T08:14:32.110Z,100922.28
2023-03-27T08:18:46.354Z,100932.19
2023-03-27T08:22:53.919Z,100934.38
2023-03-27T08:27:27.559Z,100928.50
2023-03-27T08:31:31.577Z,100941.19
2023-03-27T08:35:37.356Z,100941.19
2023-03-27T08:39:42.976Z,100950.63
2023-03-27T08:43:47.381Z,100954.16
2023-03-27T08:48:01.765Z,100956.00
2023-03-27T08:52:11.050Z,100961.16
2023-03-27T08:56:18.745Z,100963.44
2023-03-27T09:00:27.372Z,100965.91
2023-03-27T09:04:48.831Z,100970.13
2023-03-27T09:08:58.153Z,100977.59
2023-03-27T09:13:10.369Z,100991.72
2023-03-27T09:17:18.941Z,100991.97
2023-03-27T09:21:32.584Z,100988.22
2023-03-27T09:25:46.699Z,100984.81
2023-03-27T09:30:24.072Z,100982.53
2023-03-27T09:34:37.654Z,100980.94
2023-03-27T09:38:46.704Z,101000.13
2023-03-27T09:42:55.874Z,101002.34
2023-03-27T09:47:06.028Z,100993.59
2023-03-27T09:51:37.110Z,101007.31
2023-03-27T09:55:53.187Z,101008.44
2023-03-27T10:00:02.285Z,101004.97
2023-03-27T10:04:17.300Z,101013.91
2023-03-27T10:08:38.432Z,101015.97
2023-03-27T10:12:58.405Z,101024.94
2023-03-27T10:17:22.533Z,101027.41
2023-03-27T10:21:35.567Z,101021.28
2023-03-27T10:25:46.470Z,101019.06
2023-03-27T10:29:55.627Z,101007.22
2023-03-27T10:34:02.082Z,101023.66
2023-03-27T10:38:26.605Z,101017.31
2023-03-27T10:42:42.459Z,101032.81
2023-03-27T10:46:46.432Z,101049.25
2023-03-27T10:50:57.815Z,101043.53
2023-03-27T10:55:41.614Z,101043.13
2023-03-27T10:59:54.199Z,101028.06
2023-03-27T11:04:08.403Z,101027.25
2023-03-27T11:08:24.987Z,101042.53
2023-03-27T11:12:33.155Z,101042.38
2023-03-27T11:16:40.490Z,101030.09
2023-03-27T11:21:08.748Z,101046.31
2023-03-27T11:25:39.712Z,101058.16
2023-03-27T11:29:57.666Z,101074.31
2023-03-27T11:34:06.281Z,101082.03
2023-03-27T11:38:17.429Z,101104.69
2023-03-27T11:42:25.615Z,101116.31
2023-03-27T11:46:45.156Z,101117.44
2023-03-27T11:50:54.581Z,101112.69
2023-03-27T11:55:11.726Z,101123.03
2023-03-27T11:59:54.836Z,101126.13
2023-03-27T12:04:11.957Z,101113.59
2023-03-27T12:09:04.015Z,101109.81
2023-03-27T12:13:41.298Z,101092.38
2023-03-27T12:18:08.258Z,101089.59
2023-03-27T12:22:24.586Z,101093.78
2023-03-27T12:26:54.024Z,101084.13
2023-03-27T12:31:26.418Z,101105.84
2023-03-27T12:35:37.254Z,101124.06
2023-03-27T12:39:51.906Z,101119.38
2023-03-27T12:43:58.493Z,101127.38
2023-03-27T12:48:20.603Z,101121.94
2023-03-27T12:52:27.062Z,101125.06
2023-03-27T12:56:37.300Z,101135.59
2023-03-27T13:00:41.294Z,101129.44
2023-03-27T13:05:02.599Z,101128.09
2023-03-27T13:09:24.182Z,101135.75
2023-03-27T13:14:11.600Z,101126.66
2023-03-27T13:18:38.852Z,101134.34
2023-03-27T13:22:58.034Z,101141.41
2023-03-27T13:27:19.413Z,101130.72
2023-03-27T13:32:00.714Z,101133.38
2023-03-27T13:36:20.901Z,101129.69
2023-03-27T13:40:28.760Z,101140.78
2023-03-27T13:44:50.151Z,101146.16
2023-03-27T13:49:16.204Z,101170.00
2023-03-27T13:53:51.083Z,101179.72
2023-03-27T13:58:37.730Z,101164.56
2023-03-27T14:03:12.125Z,101153.25
2023-03-27T14:07:48.785Z,101145.44
2023-03-27T14:12:08.487Z,101145.72
2023-03-27T14:17:01.467Z,101146.25
2023-03-27T14:21:09.910Z,101145.97
2023-03-27T14:25:24.567Z,101146.75
2023-03-27T14:29:34.908Z,101122.88
2023-03-27T14:33:39.257Z,101125.78
2023-03-27T14:37:45.071Z,101142.66
2023-03-27T14:42:03.673Z,101144.16
2023-03-27T14:46:13.468Z,101147.22
2023-03-27T14:50:18.254Z,101177.81
2023-03-27T14:54:28.828Z,101181.56
2023-03-27T14:58:44.393Z,101187.31
2023-03-27T15:02:52.253Z,101178.81
2023-03-27T15:07:13.235Z,101183.25
2023-03-27T15:11:33.541Z,101180.16
2023-03-27T15:15:50.303Z,101200.75
2023-03-27T15:19:57.430Z,101189.75
2023-03-27T15:24:06.311Z,101206.44
2023-03-27T15:28:19.005Z,101213.28
2023-03-27T15:32:23.624Z,101219.94
2023-03-27T15:36:28.607Z,101207.88
2023-03-27T15:40:42.661Z,101215.13
2023-03-27T15:44:46.133Z,101211.97
2023-03-27T15:48:55.529Z,101224.25
2023-03-27T15:53:01.397Z,101219.03
2023-03-27T15:57:11.569Z,101231.44
2023-03-27T16:01:20.095Z,101241.47
2023-03-27T16:05:25.902Z,101241.56
2023-03-27T16:09:31.331Z,101238.28
2023-03-27T16:13:37.308Z,101241.38
2023-03-27T16:17:46.104Z,101255.56
2023-03-27T16:21:58.088Z,101260.34
2023-03-27T16:26:02.571Z,101274.56
2023-03-27T16:30:10.020Z,101275.72
2023-03-27T16:34:23.339Z,101270.94
2023-03-27T16:38:42.079Z,101270.94
2023-03-27T16:42:45.510Z,101270.94
2023-03-27T16:46:48.808Z,101281.97
2023-03-27T16:50:52.391Z,101276.19
2023-03-27T16:54:57.239Z,101290.78
2023-03-27T16:59:00.486Z,101285.34
2023-03-27T17:03:03.860Z,101289.28
2023-03-27T17:07:07.300Z,101305.63
2023-03-27T17:11:14.508Z,101303.88
2023-03-27T17:15:17.857Z,101314.78
2023-03-27T17:19:21.897Z,101315.81
2023-03-27T17:23:25.389Z,101318.69
2023-03-27T17:27:30.299Z,101319.38
2023-03-27T17:31:34.170Z,101332.97
2023-03-27T17:35:40.449Z,101339.25
2023-03-27T17:39:43.852Z,101346.59
2023-03-27T17:43:49.724Z,101342.25
2023-03-27T17:47:52.902Z,101352.66
2023-03-27T17:51:56.239Z,101353.78
2023-03-27T17:56:01.106Z,101358.28
2023-03-27T18:00:07.695Z,101359.91
2023-03-27T18:04:17.597Z,101355.91
2023-03-27T18:08:20.947Z,101369.53
2023-03-27T18:12:24.091Z,101372.63
2023-03-27T18:16:28.695Z,101376.63
2023-03-27T18:20:31.876Z,101372.44
2023-03-27T18:24:35.030Z,101390.47
2023-03-27T18:28:40.368Z,101394.78
2023-03-27T18:32:46.617Z,101400.59
2023-03-27T18:36:53.037Z,101403.69
2023-03-27T18:40:57.960Z,101412.47
2023-03-27T18:45:01.402Z,101408.72
2023-03-27T18:49:21.518Z,101417.44
2023-03-27T18:53:28.366Z,101416.13
2023-03-27T18:57:34.570Z,101416.63
2023-03-27T19:01:38.084Z,101420.84
2023-03-27T19:05:42.747Z,101426.84
2023-03-27T19:09:46.321Z,101423.09
2023-03-27T19:13:52.731Z,101427.09
2023-03-27T19:18:20.141Z,101426.94
2023-03-27T19:22:51.451Z,101436.13
2023-03-27T19:27:23.272Z,101436.06
2023-03-27T19:31:30.064Z,101436.59
2023-03-27T19:35:35.013Z,101450.16
2023-03-27T19:39:39.682Z,101453.94
2023-03-27T19:43:42.893Z,101451.16
2023-03-27T19:47:46.093Z,101454.81
2023-03-27T19:51:49.584Z,101457.81
2023-03-27T19:55:54.604Z,101456.97
2023-03-27T19:59:59.023Z,101458.81
2023-03-27T20:04:02.340Z,101465.53
2023-03-27T20:08:06.052Z,101475.75
2023-03-27T20:12:12.461Z,101475.47
2023-03-27T20:16:16.690Z,101472.34
2023-03-27T20:20:25.043Z,101473.50
2023-03-27T20:24:28.939Z,101472.22
2023-03-27T20:28:36.980Z,101472.06
2023-03-27T20:32:40.204Z,101465.81
2023-03-27T20:36:43.512Z,101470.34
2023-03-27T20:41:16.075Z,101474.50
2023-03-27T20:45:26.892Z,101472.34
2023-03-27T20:49:40.724Z,101483.31
2023-03-27T20:53:54.430Z,101475.63
2023-03-27T20:57:57.714Z,101499.22
2023-03-27T21:02:02.722Z,101496.53
2023-03-27T21:06:07.484Z,101504.72
2023-03-27T21:10:11.948Z,101509.56
2023-03-27T21:14:15.440Z,101506.03
2023-03-27T21:18:20.767Z,101508.28
2023-03-27T21:22:24.055Z,101509.75
2023-03-27T21:26:27.264Z,101505.75
2023-03-27T21:30:46.895Z,101518.78
2023-03-27T21:34:52.943Z,101517.06
2023-03-27T21:38:56.183Z,101526.94
2023-03-27T21:42:59.864Z,101522.72
2023-03-27T21:47:02.963Z,101520.66
2023-03-27T21:51:09.420Z,101534.31
2023-03-27T21:55:12.738Z,101530.97
2023-03-27T21:59:16.190Z,101540.53
2023-03-27T22:03:19.467Z,101550.69
2023-03-27T22:07:24.040Z,101548.72
2023-03-27T22:11:27.255Z,101554.38
2023-03-27T22:15:31.576Z,101555.63
2023-03-27T22:19:36.209Z,101542.41
2023-03-27T22:23:40.777Z,101562.59
2023-03-27T22:27:43.857Z,101553.25
2023-03-27T22:31:47.108Z,101564.03
2023-03-27T22:35:51.018Z,101570.16
2023-03-27T22:39:55.576Z,101572.31
2023-03-27T22:44:01.861Z,101575.69
2023-03-27T22:48:06.075Z,101583.47
2023-03-27T22:52:09.246Z,101586.88
2023-03-27T22:56:13.854Z,101593.38
2023-03-27T23:00:18.063Z,101599.88
2023-03-27T23:04:21.554Z,101602.19
2023-03-27T23:08:28.453Z,101608.59
2023-03-27T23:12:33.105Z,101609.03
2023-03-27T23:16:36.888Z,101610.94
2023-03-27T23:20:41.095Z,101612.78
2023-03-27T23:24:44.240Z,101613.38
2023-03-27T23:28:48.732Z,101615.75
2023-03-27T23:32:51.902Z,101629.97
2023-03-27T23:36:58.010Z,101628.44
2023-03-27T23:41:02.821Z,101634.31
2023-03-27T23:45:08.720Z,101628.56
2023-03-27T23:49:13.498Z,101631.59
2023-03-27T23:53:17.152Z,101635.91
2023-03-27T23:57:20.555Z,101626.47
